createdAt,value
2022-09-17T00:03:39.673Z,67.08
2022-09-17T00:08:41.899Z,67.18
2022-09-17T00:13:44.326Z,67.26
2022-09-17T00:18:45.568Z,67.23
2022-09-17T00:23:47.081Z,67.27
2022-09-17T00:28:53.017Z,67.39
2022-09-17T00:33:55.024Z,67.06
2022-09-17T00:38:58.822Z,68.38
2022-09-17T00:44:21.931Z,68.01
2022-09-17T00:49:28.482Z,68.64
2022-09-17T00:54:29.857Z,68.49
2022-09-17T00:59:31.373Z,69.35
2022-09-17T01:04:32.672Z,68.64
2022-09-17T01:09:53.339Z,69.03
2022-09-17T01:15:12.057Z,70.11
2022-09-17T01:20:19.256Z,68.87
2022-09-17T01:25:53.395Z,68.94
2022-09-17T01:31:25.513Z,68.60
2022-09-17T01:37:02.278Z,69.08
2022-09-17T01:42:17.598Z,68.73
2022-09-17T01:47:27.638Z,69.78
2022-09-17T01:52:33.771Z,69.12
2022-09-17T01:57:45.278Z,67.77
2022-09-17T02:02:53.609Z,68.55
2022-09-17T02:08:04.601Z,69.05
2022-09-17T02:13:21.654Z,68.79
2022-09-17T02:18:29.335Z,69.35
2022-09-17T02:23:36.677Z,69.14
2022-09-17T02:28:41.876Z,68.78
2022-09-17T02:33:48.071Z,69.13
2022-09-17T02:38:58.362Z,73.36
2022-09-17T02:44:13.161Z,73.70
2022-09-17T02:49:32.362Z,74.21
2022-09-17T02:54:55.867Z,73.18
2022-09-17T03:00:22.273Z,75.29
2022-09-17T03:05:25.710Z,74.79
2022-09-17T03:10:33.331Z,73.28
2022-09-17T03:15:34.590Z,75.32
2022-09-17T03:20:35.933Z,76.48
2022-09-17T03:25:37.428Z,78.16
2022-09-17T03:30:38.692Z,78.17
2022-09-17T03:35:44.003Z,79.16
2022-09-17T03:40:45.308Z,78.43
2022-09-17T03:45:47.529Z,80.29
2022-09-17T03:50:49.041Z,80.22
2022-09-17T03:55:50.404Z,79.44
2022-09-17T04:00:57.558Z,79.97
2022-09-17T04:05:59.622Z,79.59
2022-09-17T04:11:00.881Z,79.17
2022-09-17T04:16:03.098Z,80.82
2022-09-17T04:21:04.574Z,82.86
2022-09-17T04:26:06.128Z,81.45
2022-09-17T04:31:07.553Z,81.59
2022-09-17T04:36:08.978Z,79.95
2022-09-17T04:41:10.362Z,83.31
2022-09-17T04:46:11.797Z,81.64
2022-09-17T04:51:13.217Z,83.26
2022-09-17T04:56:14.468Z,81.91
2022-09-17T05:01:18.559Z,81.19
2022-09-17T05:06:19.902Z,80.99
2022-09-17T05:11:21.253Z,81.83
2022-09-17T05:16:22.625Z,79.86
2022-09-17T05:21:24.301Z,81.31
2022-09-17T05:26:25.561Z,81.65
2022-09-17T05:31:26.892Z,81.15
2022-09-17T05:36:28.148Z,81.05
2022-09-17T05:41:29.379Z,80.14
2022-09-17T05:46:30.915Z,80.18
2022-09-17T05:51:32.162Z,81.11
2022-09-17T05:56:33.690Z,80.96
2022-09-17T06:01:34.993Z,79.39
2022-09-17T06:06:37.728Z,80.83
2022-09-17T06:11:39.230Z,79.96
2022-09-17T06:16:40.501Z,78.98
2022-09-17T06:21:41.864Z,78.96
2022-09-17T06:26:43.129Z,78.17
2022-09-17T06:31:44.861Z,79.20
2022-09-17T06:36:46.349Z,78.60
2022-09-17T06:41:47.793Z,76.12
2022-09-17T06:46:51.062Z,76.62
2022-09-17T06:51:52.721Z,74.99
2022-09-17T06:56:54.041Z,76.91
2022-09-17T07:01:55.800Z,75.95
2022-09-17T07:06:57.183Z,75.06
2022-09-17T07:11:58.627Z,70.79
2022-09-17T07:16:59.959Z,70.86
2022-09-17T07:22:01.248Z,70.67
2022-09-17T07:27:02.638Z,74.04
2022-09-17T07:32:03.958Z,70.84
2022-09-17T07:37:05.242Z,70.75
2022-09-17T07:42:06.584Z,69.17
2022-09-17T07:47:08.111Z,69.74
2022-09-17T07:52:09.491Z,68.13
2022-09-17T07:57:10.785Z,67.45
2022-09-17T08:02:14.102Z,66.68
2022-09-17T08:07:15.549Z,66.11
2022-09-17T08:12:18.305Z,65.97
2022-09-17T08:17:19.603Z,64.18
2022-09-17T08:22:21.000Z,64.20
2022-09-17T08:27:22.639Z,65.07
2022-09-17T08:32:24.619Z,66.08
2022-09-17T08:37:29.708Z,66.45
2022-09-17T08:42:39.582Z,64.71
2022-09-17T08:47:45.935Z,62.13
2022-09-17T08:53:16.042Z,60.51
2022-09-17T08:58:41.026Z,59.99
2022-09-17T09:03:56.639Z,55.49
2022-09-17T09:09:03.857Z,53.31
2022-09-17T09:14:14.044Z,53.65
2022-09-17T09:19:28.062Z,52.05
2022-09-17T09:24:36.324Z,49.89
2022-09-17T09:30:04.074Z,51.41
2022-09-17T09:35:27.257Z,52.99
2022-09-17T09:40:36.182Z,49.51
2022-09-17T09:45:46.403Z,49.26
2022-09-17T09:51:06.506Z,51.60
2022-09-17T09:56:28.333Z,50.59
2022-09-17T10:01:30.209Z,49.59
2022-09-17T10:06:31.770Z,48.86
2022-09-17T10:11:33.599Z,51.44
2022-09-17T10:16:36.204Z,51.91
2022-09-17T10:21:40.199Z,53.84
2022-09-17T10:26:41.626Z,54.22
2022-09-17T10:31:54.346Z,54.42
2022-09-17T10:36:57.152Z,51.64
2022-09-17T10:42:20.865Z,50.13
2022-09-17T10:47:25.753Z,49.65
2022-09-17T10:52:31.227Z,46.65
2022-09-17T10:57:51.350Z,45.36
2022-09-17T11:03:16.320Z,44.09
2022-09-17T11:08:24.683Z,40.36
2022-09-17T11:13:36.853Z,43.71
2022-09-17T11:18:45.532Z,44.93
2022-09-17T11:24:20.775Z,34.86
2022-09-17T11:30:16.866Z,29.39
2022-09-17T11:35:25.760Z,26.65
2022-09-17T11:40:36.679Z,22.69
2022-09-17T11:45:43.381Z,27.01
2022-09-17T11:50:51.354Z,43.75
2022-09-17T11:56:02.722Z,53.80
2022-09-17T12:01:09.995Z,53.41
2022-09-17T12:06:28.608Z,54.16
2022-09-17T12:11:58.912Z,43.17
2022-09-17T12:17:03.238Z,28.20
2022-09-17T12:22:12.159Z,30.85
2022-09-17T12:27:39.561Z,26.47
2022-09-17T12:33:02.911Z,21.03
2022-09-17T12:38:14.294Z,20.94
2022-09-17T12:43:20.829Z,19.93
2022-09-17T12:49:07.466Z,17.49
2022-09-17T12:54:17.827Z,18.08
2022-09-17T12:59:20.649Z,17.69
2022-09-17T13:05:01.077Z,21.92
2022-09-17T13:10:23.253Z,21.43
2022-09-17T13:15:33.757Z,21.36
2022-09-17T13:20:40.229Z,20.65
2022-09-17T13:25:53.089Z,23.53
2022-09-17T13:31:00.499Z,26.75
2022-09-17T13:36:03.940Z,27.69
2022-09-17T13:41:20.231Z,30.54
2022-09-17T13:46:24.149Z,30.56
2022-09-17T13:51:34.369Z,33.03
2022-09-17T13:56:41.257Z,34.13
2022-09-17T14:01:48.700Z,36.14
2022-09-17T14:06:53.299Z,37.04
2022-09-17T14:11:54.594Z,39.11
2022-09-17T14:16:55.889Z,43.19
2022-09-17T14:22:00.908Z,44.46
2022-09-17T14:27:14.353Z,44.37
2022-09-17T14:32:32.190Z,44.86
2022-09-17T14:37:41.997Z,45.86
2022-09-17T14:42:44.033Z,53.73
2022-09-17T14:47:45.442Z,54.33
2022-09-17T14:52:51.354Z,54.95
2022-09-17T14:57:56.418Z,52.00
2022-09-17T15:03:00.841Z,50.99
2022-09-17T15:08:11.254Z,50.03
2022-09-17T15:13:17.016Z,50.05
2022-09-17T15:18:18.559Z,50.17
2022-09-17T15:23:26.401Z,50.46
2022-09-17T15:28:33.954Z,52.39
2022-09-17T15:33:35.391Z,52.67
2022-09-17T15:38:38.994Z,50.06
2022-09-17T15:43:41.229Z,50.84
2022-09-17T15:48:42.477Z,51.32
2022-09-17T15:53:52.378Z,52.11
2022-09-17T15:59:00.584Z,53.02
2022-09-17T16:04:08.921Z,53.03
2022-09-17T16:09:46.746Z,50.71
2022-09-17T16:14:52.348Z,53.87
2022-09-17T16:19:55.706Z,54.32
2022-09-17T16:24:57.156Z,54.33
2022-09-17T16:30:05.024Z,54.04
2022-09-17T16:35:06.750Z,55.46
2022-09-17T16:40:12.700Z,56.00
2022-09-17T16:45:16.277Z,56.15
2022-09-17T16:50:18.254Z,55.36
2022-09-17T16:55:20.336Z,55.96
2022-09-17T17:00:22.482Z,56.02
2022-09-17T17:05:25.868Z,54.92
2022-09-17T17:10:27.132Z,57.89
2022-09-17T17:15:28.391Z,58.58
2022-09-17T17:20:31.878Z,58.43
2022-09-17T17:25:33.222Z,59.05
2022-09-17T17:30:35.213Z,58.94
2022-09-17T17:35:39.078Z,60.31
2022-09-17T17:40:40.451Z,60.28
2022-09-17T17:45:41.772Z,59.29
2022-09-17T17:50:43.072Z,58.78
2022-09-17T17:55:44.357Z,60.42
2022-09-17T18:00:45.611Z,60.67
2022-09-17T18:05:47.086Z,59.91
2022-09-17T18:10:56.110Z,60.35
2022-09-17T18:15:59.504Z,60.25
2022-09-17T18:21:06.901Z,60.02
2022-09-17T18:26:11.981Z,59.80
2022-09-17T18:31:33.606Z,60.50
2022-09-17T18:36:36.611Z,60.13
2022-09-17T18:41:40.222Z,60.28
2022-09-17T18:46:42.534Z,60.95
2022-09-17T18:51:43.984Z,60.58
2022-09-17T18:56:45.245Z,61.17
2022-09-17T19:01:46.724Z,61.79
2022-09-17T19:06:48.025Z,61.72
2022-09-17T19:11:49.382Z,61.16
2022-09-17T19:16:50.638Z,61.35
2022-09-17T19:21:51.937Z,61.60
2022-09-17T19:26:53.478Z,61.96
2022-09-17T19:31:54.769Z,60.76
2022-09-17T19:36:56.038Z,61.32
2022-09-17T19:41:57.505Z,61.53
2022-09-17T19:46:58.901Z,62.46
2022-09-17T19:52:00.360Z,61.88
2022-09-17T19:57:01.609Z,62.87
2022-09-17T20:02:04.181Z,63.62
2022-09-17T20:07:05.516Z,64.15
2022-09-17T20:12:07.030Z,64.62
2022-09-17T20:17:08.677Z,64.40
2022-09-17T20:22:09.908Z,65.22
2022-09-17T20:27:11.198Z,65.05
2022-09-17T20:32:12.782Z,65.32
2022-09-17T20:37:14.119Z,65.55
2022-09-17T20:42:15.829Z,65.94
2022-09-17T20:47:17.109Z,67.04
2022-09-17T20:52:21.154Z,67.65
2022-09-17T20:57:22.594Z,67.93
2022-09-17T21:02:25.297Z,68.50
2022-09-17T21:07:27.091Z,68.23
2022-09-17T21:12:28.385Z,69.87
2022-09-17T21:17:31.664Z,70.36
2022-09-17T21:22:32.910Z,69.86
2022-09-17T21:27:34.221Z,71.22
2022-09-17T21:32:38.985Z,70.56
2022-09-17T21:37:40.257Z,70.96
2022-09-17T21:42:41.596Z,70.64
2022-09-17T21:47:43.070Z,71.44
2022-09-17T21:52:44.326Z,73.45
2022-09-17T21:57:45.575Z,74.84
2022-09-17T22:02:46.998Z,75.25
2022-09-17T22:07:48.388Z,74.33
2022-09-17T22:12:49.658Z,74.32
2022-09-17T22:17:50.932Z,74.70
2022-09-17T22:22:53.271Z,73.41
2022-09-17T22:28:19.455Z,73.78
2022-09-17T22:33:15.762Z,75.22
2022-09-17T22:38:17.078Z,74.61
2022-09-17T22:43:18.345Z,75.53
2022-09-17T22:48:19.627Z,75.19
2022-09-17T22:53:20.925Z,75.28
2022-09-17T22:58:24.227Z,75.80
2022-09-17T23:03:26.542Z,76.37
2022-09-17T23:08:28.805Z,75.86
2022-09-17T23:13:30.154Z,75.98
2022-09-17T23:18:32.354Z,76.58
2022-09-17T23:23:35.439Z,76.05
2022-09-17T23:28:37.689Z,75.32
2022-09-17T23:33:39.219Z,76.21
2022-09-17T23:38:42.464Z,76.31
2022-09-17T23:43:46.365Z,76.00
2022-09-17T23:48:48.754Z,76.01
2022-09-17T23:53:50.730Z,75.90
2022-09-17T23:58:54.177Z,75.83
